Tony, Wisconsin
Current Conditions -  °F | °C
As of 8:35 AM on Friday 24 Oct 2014 (Local Time) from KRCX Reporting Station
Haze Haze  
Wind Chill: 44°   Ceiling: 100
Heat Index: 47°   Visibility: 1.5mi
Dew Point: 46°   Wind: 6mph
Humidity: 98%   Direction: 160°SSE
Pressure: 29.99"   Gusts: NA
Location:  45.48°N, 90.99°W
Report Text: KRCX 241335Z AUTO 16005KT 1 1/2SM BR OVC001 08/08 A2999 RMK AO2 T00830080
Loading
Personal Weather Stations






























Interactive Weather Map
Tropical Storm Tracking
New forecast layout! Learn more

10-Day Weather Forecast

Advertisements
Track Severe Weather on mobile